CheckWX is a tool to help pilots better visualize weather data.  It is not intended as a substitute for an official pre-flight weather briefing.

21:38:21 UTC

FOOL METAR
Libreville Leon M'ba International Airport
Libreville, Gabon
Current

38 mins ago

FOOL 232100Z 26005KT 9999 FEW012 29/24 Q1010 NOSIG
Observed
Feb-23 @ 21:00 UTC
Wind
  • 260° at 5 KTS
Visibility
10,000+ meters
Flight Rules
VFR
Cloud Levels
  • Few at 1,200' AGL
Temperature
29°C / 84°F
Dewpoint
24°C / 75°F
Humidity
74%
Altimeter
29.82" Hg
Pressure
1009.92 hPa
Previous

1 hour ago

FOOL 232030Z 24005KT 9999 FEW012 29/25 Q1010 NOSIG
Observed
Feb-23 @ 20:30 UTC
Wind
  • 240° at 5 KTS
Visibility
10,000+ meters
Flight Rules
VFR
Cloud Levels
  • Few at 1,200' AGL
Temperature
29°C / 84°F
Dewpoint
25°C / 77°F
Humidity
79%
Altimeter
29.82" Hg
Pressure
1009.92 hPa
Previous

2 hours ago

FOOL 232000Z 24007KT 9999 FEW012 29/25 Q1010 NOSIG
Observed
Feb-23 @ 20:00 UTC
Wind
  • 240° at 7 KTS
Visibility
10,000+ meters
Flight Rules
VFR
Cloud Levels
  • Few at 1,200' AGL
Temperature
29°C / 84°F
Dewpoint
25°C / 77°F
Humidity
79%
Altimeter
29.82" Hg
Pressure
1009.92 hPa